createdAt,value
2018-03-25T00:00:38.575Z,5.14
2018-03-25T00:01:39.283Z,5.07
2018-03-25T00:02:39.989Z,5.02
2018-03-25T00:03:40.700Z,5.05
2018-03-25T00:04:41.408Z,5.08
2018-03-25T00:05:42.126Z,5.08
2018-03-25T00:06:42.850Z,5.15
2018-03-25T00:07:43.558Z,5.11
2018-03-25T00:08:44.281Z,5.14
2018-03-25T00:09:44.987Z,5.14
2018-03-25T00:10:45.709Z,5.05
2018-03-25T00:11:46.417Z,5.08
2018-03-25T00:12:47.125Z,5.17
2018-03-25T00:13:47.839Z,5.10
2018-03-25T00:14:48.553Z,5.11
2018-03-25T00:15:49.275Z,5.15
2018-03-25T00:16:49.983Z,5.02
2018-03-25T00:17:50.690Z,5.00
2018-03-25T00:18:51.400Z,5.04
2018-03-25T00:19:52.110Z,5.00
2018-03-25T00:20:52.817Z,5.02
2018-03-25T00:21:53.538Z,5.02
2018-03-25T00:22:54.248Z,4.94
2018-03-25T00:23:54.955Z,5.04
2018-03-25T00:24:55.662Z,5.00
2018-03-25T00:25:56.369Z,4.94
2018-03-25T00:26:57.076Z,4.99
2018-03-25T00:27:57.785Z,4.93
2018-03-25T00:28:58.492Z,4.97
2018-03-25T00:29:59.202Z,4.99
2018-03-25T00:30:59.906Z,5.02
2018-03-25T00:32:00.613Z,5.00
2018-03-25T00:33:01.325Z,5.02
2018-03-25T00:34:02.043Z,5.02
2018-03-25T00:35:02.751Z,5.00
2018-03-25T00:36:03.459Z,5.02
2018-03-25T00:37:04.168Z,5.02
2018-03-25T00:38:04.875Z,5.07
2018-03-25T00:39:05.585Z,5.05
2018-03-25T00:40:06.293Z,4.97
2018-03-25T00:41:07.017Z,4.99
2018-03-25T00:42:07.724Z,4.97
2018-03-25T00:43:08.446Z,4.97
2018-03-25T00:44:09.155Z,4.96
2018-03-25T00:45:09.865Z,4.92
2018-03-25T00:46:10.571Z,4.96
2018-03-25T00:47:11.292Z,4.90
2018-03-25T00:48:11.999Z,4.84
2018-03-25T00:49:12.708Z,4.96
2018-03-25T00:50:13.417Z,4.86
2018-03-25T00:51:14.141Z,4.87
2018-03-25T00:52:14.850Z,4.86
2018-03-25T00:53:15.560Z,4.92
2018-03-25T00:54:16.271Z,4.87
2018-03-25T00:55:16.993Z,4.84
2018-03-25T00:56:17.702Z,4.89
2018-03-25T00:57:18.420Z,4.80
2018-03-25T00:58:19.128Z,4.92
2018-03-25T00:59:19.836Z,4.90
2018-03-25T01:00:20.544Z,4.87
2018-03-25T01:01:21.268Z,4.90
2018-03-25T01:02:21.976Z,4.77
2018-03-25T01:03:22.686Z,4.78
2018-03-25T01:04:23.396Z,4.77
2018-03-25T01:05:24.106Z,4.82
2018-03-25T01:06:24.829Z,4.77
2018-03-25T01:07:25.537Z,4.82
2018-03-25T01:08:26.246Z,4.84
2018-03-25T01:09:26.968Z,4.78
2018-03-25T01:10:27.675Z,4.89
2018-03-25T01:11:28.387Z,4.68
2018-03-25T01:12:29.106Z,4.80
2018-03-25T01:13:29.827Z,4.84
2018-03-25T01:14:30.535Z,4.87
2018-03-25T01:15:31.241Z,4.74
2018-03-25T01:16:31.948Z,4.78
2018-03-25T01:17:32.656Z,4.90
2018-03-25T01:18:33.363Z,4.90
2018-03-25T01:19:34.076Z,4.77
2018-03-25T01:20:34.780Z,4.84
2018-03-25T01:21:35.502Z,4.75
2018-03-25T01:22:36.210Z,4.78
2018-03-25T01:23:36.919Z,4.90
2018-03-25T01:24:37.628Z,4.90
2018-03-25T01:25:38.349Z,4.89
2018-03-25T01:26:39.071Z,4.89
2018-03-25T01:27:39.792Z,4.89
2018-03-25T01:28:40.500Z,4.77
2018-03-25T01:29:41.223Z,4.80
2018-03-25T01:30:41.933Z,4.70
2018-03-25T01:31:42.643Z,4.70
2018-03-25T01:32:43.365Z,4.74
2018-03-25T01:33:44.071Z,4.71
2018-03-25T01:34:44.779Z,4.68
2018-03-25T01:35:45.486Z,4.60
2018-03-25T01:36:46.207Z,4.68
2018-03-25T01:37:46.916Z,4.55
2018-03-25T01:38:47.637Z,4.56
2018-03-25T01:39:48.343Z,4.53
2018-03-25T01:40:49.051Z,4.58
2018-03-25T01:41:49.759Z,4.56
2018-03-25T01:42:50.467Z,4.56
2018-03-25T01:43:51.176Z,4.55
2018-03-25T01:44:51.885Z,4.63
2018-03-25T01:45:52.605Z,4.58
2018-03-25T01:46:53.326Z,4.59
2018-03-25T01:47:54.036Z,4.52
2018-03-25T01:48:54.744Z,4.56
2018-03-25T01:49:55.452Z,4.55
2018-03-25T01:50:56.161Z,4.53
2018-03-25T01:51:56.874Z,4.59
2018-03-25T01:52:57.605Z,4.62
2018-03-25T01:53:58.297Z,4.52
2018-03-25T01:54:59.006Z,4.58
2018-03-25T01:55:59.728Z,4.45
2018-03-25T01:57:00.452Z,4.63
2018-03-25T01:58:01.169Z,4.53
2018-03-25T01:59:01.876Z,4.58
2018-03-25T02:00:02.584Z,4.53
2018-03-25T02:01:03.293Z,4.44
2018-03-25T02:02:04.000Z,4.52
2018-03-25T02:03:04.708Z,4.44
2018-03-25T02:04:05.430Z,4.44
2018-03-25T02:05:06.137Z,4.41
2018-03-25T02:06:06.847Z,4.38
2018-03-25T02:07:07.556Z,4.38
2018-03-25T02:08:08.265Z,4.38
2018-03-25T02:09:08.974Z,4.30
2018-03-25T02:10:09.682Z,4.28
2018-03-25T02:11:10.389Z,4.35
2018-03-25T02:12:11.113Z,4.30
2018-03-25T02:13:11.832Z,4.34
2018-03-25T02:14:12.543Z,4.32
2018-03-25T02:15:13.264Z,4.32
2018-03-25T02:16:13.985Z,4.32
2018-03-25T02:17:14.703Z,4.28
2018-03-25T02:18:15.411Z,4.31
2018-03-25T02:19:16.116Z,4.24
2018-03-25T02:20:16.825Z,4.26
2018-03-25T02:21:17.533Z,4.05
2018-03-25T02:22:18.243Z,4.05
2018-03-25T02:23:18.961Z,4.06
2018-03-25T02:24:19.675Z,4.05
2018-03-25T02:25:20.393Z,3.95
2018-03-25T02:26:21.099Z,4.04
2018-03-25T02:27:21.805Z,3.98
2018-03-25T02:28:22.511Z,3.96
2018-03-25T02:29:23.218Z,3.95
2018-03-25T02:30:23.925Z,3.91
2018-03-25T02:31:24.648Z,3.96
2018-03-25T02:32:25.352Z,3.94
2018-03-25T02:33:26.063Z,3.95
2018-03-25T02:34:26.781Z,3.98
2018-03-25T02:35:27.488Z,3.91
2018-03-25T02:36:28.192Z,3.95
2018-03-25T02:37:28.914Z,3.92
2018-03-25T02:38:29.624Z,3.86
2018-03-25T02:39:30.348Z,3.92
2018-03-25T02:40:31.054Z,3.92
2018-03-25T02:41:31.753Z,3.87
2018-03-25T02:42:32.473Z,3.95
2018-03-25T02:43:33.194Z,3.98
2018-03-25T02:44:33.902Z,3.95
2018-03-25T02:45:34.627Z,3.94
2018-03-25T02:46:35.326Z,3.86
2018-03-25T02:47:36.025Z,3.95
2018-03-25T02:48:36.759Z,3.95
2018-03-25T02:49:37.467Z,3.88
2018-03-25T02:50:38.174Z,3.95
2018-03-25T02:51:38.897Z,4.05
2018-03-25T02:52:39.602Z,4.05
2018-03-25T02:53:40.310Z,4.05
2018-03-25T02:54:41.030Z,4.04
2018-03-25T02:55:41.739Z,4.05
2018-03-25T02:56:42.448Z,4.05
2018-03-25T02:57:43.170Z,4.06
2018-03-25T02:58:43.889Z,4.10
2018-03-25T02:59:44.603Z,4.14
2018-03-25T03:00:45.319Z,4.16
2018-03-25T03:01:46.028Z,4.22
2018-03-25T03:02:46.744Z,4.12
2018-03-25T03:03:47.448Z,4.24
2018-03-25T03:04:48.161Z,4.17
2018-03-25T03:05:48.878Z,4.12
2018-03-25T03:06:49.586Z,4.14
2018-03-25T03:07:50.296Z,4.22
2018-03-25T03:08:51.000Z,4.12
2018-03-25T03:09:51.707Z,4.19
2018-03-25T03:10:52.413Z,4.16
2018-03-25T03:11:53.135Z,4.26
2018-03-25T03:12:53.841Z,4.22
2018-03-25T03:13:54.548Z,4.16
2018-03-25T03:14:55.260Z,4.16
2018-03-25T03:15:55.978Z,4.14
2018-03-25T03:16:56.688Z,4.26
2018-03-25T03:17:57.397Z,4.19
2018-03-25T03:18:58.111Z,4.24
2018-03-25T03:19:58.815Z,4.22
2018-03-25T03:20:59.524Z,4.31
2018-03-25T03:22:00.232Z,4.24
2018-03-25T03:23:00.942Z,4.24
2018-03-25T03:24:01.649Z,4.35
2018-03-25T03:25:02.358Z,4.24
2018-03-25T03:26:03.066Z,4.32
2018-03-25T03:27:03.773Z,4.35
2018-03-25T03:28:04.482Z,4.28
2018-03-25T03:29:05.194Z,4.37
2018-03-25T03:30:05.899Z,4.44
2018-03-25T03:31:06.607Z,4.32
2018-03-25T03:32:07.313Z,4.42
2018-03-25T03:33:08.020Z,4.45
2018-03-25T03:34:08.738Z,4.45
2018-03-25T03:35:09.448Z,4.37
2018-03-25T03:36:10.168Z,4.41
2018-03-25T03:37:10.892Z,4.44
2018-03-25T03:38:11.613Z,4.42
2018-03-25T03:39:12.322Z,4.45
2018-03-25T03:40:13.029Z,4.44
2018-03-25T03:41:13.738Z,4.45
2018-03-25T03:42:14.446Z,4.42
2018-03-25T03:43:15.153Z,4.42
2018-03-25T03:44:15.861Z,4.38
2018-03-25T03:45:16.568Z,4.49
2018-03-25T03:46:17.277Z,4.45
2018-03-25T03:47:17.984Z,4.41
2018-03-25T03:48:18.691Z,4.44
2018-03-25T03:49:19.398Z,4.38
2018-03-25T03:50:20.120Z,4.38
2018-03-25T03:51:20.827Z,4.44
2018-03-25T03:52:21.535Z,4.40
2018-03-25T03:53:22.244Z,4.48
2018-03-25T03:54:22.952Z,4.41
2018-03-25T03:55:23.662Z,4.42
2018-03-25T03:56:24.369Z,4.44
2018-03-25T03:57:25.076Z,4.48
2018-03-25T03:58:25.789Z,4.48
2018-03-25T03:59:26.492Z,4.45
2018-03-25T04:00:27.212Z,4.48
2018-03-25T04:01:27.933Z,4.45
2018-03-25T04:02:28.653Z,4.44
2018-03-25T04:03:29.359Z,4.52
2018-03-25T04:04:30.369Z,4.52
2018-03-25T04:05:31.091Z,4.49
2018-03-25T04:06:31.799Z,4.50
2018-03-25T04:07:32.521Z,4.52
2018-03-25T04:08:33.227Z,4.58
2018-03-25T04:09:33.937Z,4.52
2018-03-25T04:10:34.641Z,4.49
2018-03-25T04:11:35.348Z,4.60
2018-03-25T04:12:36.055Z,4.50
2018-03-25T04:13:36.774Z,4.50
2018-03-25T04:14:37.482Z,4.56
2018-03-25T04:15:38.190Z,4.53
2018-03-25T04:16:38.912Z,4.59
2018-03-25T04:17:39.632Z,4.50
2018-03-25T04:18:40.340Z,4.59
2018-03-25T04:19:41.059Z,4.58
2018-03-25T04:20:41.769Z,4.55
2018-03-25T04:21:42.488Z,4.55
2018-03-25T04:22:43.196Z,4.58
2018-03-25T04:23:43.904Z,4.58
2018-03-25T04:24:44.612Z,4.62
2018-03-25T04:25:45.319Z,4.70
2018-03-25T04:26:46.027Z,4.60
2018-03-25T04:27:46.734Z,4.62
2018-03-25T04:28:47.443Z,4.68
2018-03-25T04:29:48.150Z,4.67
2018-03-25T04:30:48.858Z,4.71
2018-03-25T04:31:49.581Z,4.75
2018-03-25T04:32:50.289Z,4.68
2018-03-25T04:33:51.010Z,4.71
2018-03-25T04:34:51.718Z,4.74
2018-03-25T04:35:52.426Z,4.73
2018-03-25T04:36:53.135Z,4.70
2018-03-25T04:37:53.856Z,4.58
2018-03-25T04:38:54.564Z,4.68
2018-03-25T04:39:55.286Z,4.60
2018-03-25T04:40:55.994Z,4.55
2018-03-25T04:41:56.703Z,4.73
2018-03-25T04:42:57.411Z,4.59
2018-03-25T04:43:58.124Z,4.56
2018-03-25T04:44:58.827Z,4.70
2018-03-25T04:45:59.548Z,4.71
2018-03-25T04:47:00.256Z,4.70
2018-03-25T04:48:00.964Z,4.70
2018-03-25T04:49:01.672Z,4.80
2018-03-25T04:50:02.382Z,4.78
2018-03-25T04:51:03.101Z,4.82
2018-03-25T04:52:03.810Z,4.80
2018-03-25T04:53:04.533Z,4.77
2018-03-25T04:54:05.241Z,4.82
2018-03-25T04:55:05.950Z,4.75
2018-03-25T04:56:06.731Z,4.75
2018-03-25T04:57:07.382Z,4.80
2018-03-25T04:58:08.101Z,4.84
2018-03-25T04:59:08.808Z,4.84
2018-03-25T05:00:09.517Z,4.77
2018-03-25T05:01:10.239Z,4.77
2018-03-25T05:02:10.949Z,4.87
2018-03-25T05:03:11.655Z,4.89
2018-03-25T05:04:12.362Z,4.90
2018-03-25T05:05:13.071Z,4.92
2018-03-25T05:06:13.792Z,4.78
2018-03-25T05:07:14.515Z,4.89
2018-03-25T05:08:15.223Z,4.86
2018-03-25T05:09:15.938Z,4.80
2018-03-25T05:10:16.640Z,4.92
2018-03-25T05:11:17.349Z,4.75
2018-03-25T05:12:18.069Z,4.86
2018-03-25T05:13:18.779Z,4.80
2018-03-25T05:14:19.491Z,4.80
2018-03-25T05:15:20.196Z,4.90
2018-03-25T05:16:20.918Z,4.92
2018-03-25T05:17:21.627Z,4.78
2018-03-25T05:18:22.338Z,4.74
2018-03-25T05:19:23.059Z,4.71
2018-03-25T05:20:23.770Z,4.74
2018-03-25T05:21:24.480Z,4.73
2018-03-25T05:22:25.190Z,4.87
2018-03-25T05:23:25.899Z,4.84
2018-03-25T05:24:26.609Z,4.80
2018-03-25T05:25:27.330Z,4.87
2018-03-25T05:26:28.042Z,4.86
2018-03-25T05:27:28.751Z,4.89
2018-03-25T05:28:29.475Z,4.89
2018-03-25T05:29:30.188Z,4.84
2018-03-25T05:30:30.899Z,4.77
2018-03-25T05:31:31.609Z,4.86
2018-03-25T05:32:32.318Z,4.80
2018-03-25T05:33:33.030Z,4.86
2018-03-25T05:34:33.740Z,4.77
2018-03-25T05:35:34.452Z,4.77
2018-03-25T05:36:35.161Z,4.77
2018-03-25T05:37:35.868Z,4.90
2018-03-25T05:38:36.600Z,4.80
2018-03-25T05:39:37.319Z,4.80
2018-03-25T05:40:38.034Z,4.89
2018-03-25T05:41:38.739Z,4.89
2018-03-25T05:42:39.448Z,4.94
2018-03-25T05:43:40.164Z,4.89
2018-03-25T05:44:40.870Z,4.86
2018-03-25T05:45:41.582Z,4.86
2018-03-25T05:46:42.296Z,4.89
2018-03-25T05:47:43.020Z,4.89
2018-03-25T05:48:43.732Z,4.87
2018-03-25T05:49:44.444Z,4.77
2018-03-25T05:50:45.154Z,4.86
2018-03-25T05:51:45.878Z,4.78
2018-03-25T05:52:46.590Z,4.86
2018-03-25T05:53:47.317Z,4.89
2018-03-25T05:54:48.030Z,4.84
2018-03-25T05:55:48.758Z,4.87
2018-03-25T05:56:49.463Z,4.87
2018-03-25T05:57:50.199Z,4.90
2018-03-25T05:58:50.916Z,4.87
2018-03-25T05:59:51.641Z,4.92
2018-03-25T06:00:52.352Z,4.99
2018-03-25T06:01:53.066Z,5.02
2018-03-25T06:02:53.778Z,5.05
2018-03-25T06:03:54.491Z,5.00
2018-03-25T06:04:55.214Z,5.07
2018-03-25T06:05:55.923Z,5.07
2018-03-25T06:06:56.633Z,5.11
2018-03-25T06:07:57.344Z,5.18
2018-03-25T06:08:58.056Z,5.08
2018-03-25T06:09:58.767Z,5.08
2018-03-25T06:10:59.485Z,4.97
2018-03-25T06:12:00.195Z,5.10
2018-03-25T06:13:00.908Z,5.08
2018-03-25T06:14:01.624Z,5.12
2018-03-25T06:15:02.330Z,5.18
2018-03-25T06:16:03.104Z,5.12
2018-03-25T06:17:03.755Z,5.23
2018-03-25T06:18:04.468Z,5.15
2018-03-25T06:19:05.195Z,5.14
2018-03-25T06:20:05.921Z,5.18
2018-03-25T06:21:06.636Z,5.20
2018-03-25T06:22:07.350Z,5.33
2018-03-25T06:23:08.059Z,5.36
2018-03-25T06:24:08.788Z,5.35
2018-03-25T06:25:09.504Z,5.35
2018-03-25T06:26:10.212Z,5.33
2018-03-25T06:27:10.925Z,5.32
2018-03-25T06:28:11.640Z,5.30
2018-03-25T06:29:12.353Z,5.38
2018-03-25T06:30:13.063Z,5.39
2018-03-25T06:31:13.778Z,5.36
2018-03-25T06:32:14.494Z,5.50
2018-03-25T06:33:15.220Z,5.46
2018-03-25T06:34:15.933Z,5.48
2018-03-25T06:35:16.651Z,5.39
2018-03-25T06:36:17.360Z,5.39
2018-03-25T06:37:18.072Z,5.43
2018-03-25T06:38:18.798Z,5.47
2018-03-25T06:39:19.524Z,5.50
2018-03-25T06:40:20.237Z,5.48
2018-03-25T06:41:20.952Z,5.56
2018-03-25T06:42:21.666Z,5.61
2018-03-25T06:43:22.383Z,5.61
2018-03-25T06:44:23.090Z,5.66
2018-03-25T06:45:23.803Z,5.65
2018-03-25T06:46:24.516Z,5.69
2018-03-25T06:47:25.229Z,5.71
2018-03-25T06:48:25.942Z,5.72
2018-03-25T06:49:26.656Z,5.79
2018-03-25T06:50:27.383Z,5.76
2018-03-25T06:51:28.095Z,5.72
2018-03-25T06:52:28.811Z,5.73
2018-03-25T06:53:29.522Z,5.73
2018-03-25T06:54:30.234Z,5.72
2018-03-25T06:55:30.946Z,5.75
2018-03-25T06:56:31.658Z,5.80
2018-03-25T06:57:32.376Z,5.89
2018-03-25T06:58:33.093Z,5.94
2018-03-25T06:59:33.799Z,5.99
2018-03-25T07:00:34.528Z,6.01
2018-03-25T07:01:35.243Z,5.91
2018-03-25T07:02:35.957Z,5.93
2018-03-25T07:03:36.672Z,5.93
2018-03-25T07:04:37.388Z,6.02
2018-03-25T07:05:38.109Z,5.91
2018-03-25T07:06:38.821Z,6.07
2018-03-25T07:07:39.551Z,6.07
2018-03-25T07:08:40.277Z,6.11
2018-03-25T07:09:40.984Z,6.16
2018-03-25T07:10:41.712Z,6.28
2018-03-25T07:11:42.428Z,6.20
2018-03-25T07:12:43.145Z,6.35
2018-03-25T07:13:43.862Z,6.33
2018-03-25T07:14:44.591Z,6.35
2018-03-25T07:15:45.321Z,6.46
2018-03-25T07:16:46.037Z,6.39
2018-03-25T07:17:46.765Z,6.42
2018-03-25T07:18:47.480Z,6.49
2018-03-25T07:19:48.196Z,6.52
2018-03-25T07:20:48.914Z,6.52
2018-03-25T07:21:49.632Z,6.60
2018-03-25T07:22:50.348Z,6.57
2018-03-25T07:23:51.076Z,6.62
2018-03-25T07:24:51.794Z,6.74
2018-03-25T07:25:52.510Z,6.75
2018-03-25T07:26:53.226Z,6.77
2018-03-25T07:27:53.954Z,6.75
2018-03-25T07:28:54.685Z,6.78
2018-03-25T07:29:55.389Z,6.88
2018-03-25T07:30:56.105Z,6.95
2018-03-25T07:31:56.821Z,6.87
2018-03-25T07:32:57.535Z,6.87
2018-03-25T07:33:58.250Z,6.96
2018-03-25T07:34:58.966Z,7.00
2018-03-25T07:35:59.683Z,7.03
2018-03-25T07:37:00.402Z,6.96
2018-03-25T07:38:01.118Z,7.06
2018-03-25T07:39:01.834Z,7.14
2018-03-25T07:40:02.551Z,7.17
2018-03-25T07:41:03.268Z,7.23
2018-03-25T07:42:03.987Z,7.25
2018-03-25T07:43:04.704Z,7.32
2018-03-25T07:44:05.423Z,7.39
2018-03-25T07:45:06.154Z,7.38
2018-03-25T07:46:06.870Z,7.45
2018-03-25T07:47:07.587Z,7.39
2018-03-25T07:48:08.318Z,7.40
2018-03-25T07:49:09.042Z,7.47
2018-03-25T07:50:09.773Z,7.53
2018-03-25T07:51:10.469Z,7.54
2018-03-25T07:52:11.188Z,7.61
2018-03-25T07:53:11.905Z,7.61
2018-03-25T07:54:12.623Z,7.75
2018-03-25T07:55:13.351Z,7.72
2018-03-25T07:56:14.079Z,7.76
2018-03-25T07:57:14.810Z,7.76
2018-03-25T07:58:15.544Z,7.70
2018-03-25T07:59:16.263Z,7.51
2018-03-25T08:00:16.979Z,7.63
2018-03-25T08:01:17.697Z,7.58
2018-03-25T08:02:18.430Z,7.67
2018-03-25T08:03:19.149Z,7.73
2018-03-25T08:04:19.866Z,7.70
2018-03-25T08:05:20.584Z,7.76
2018-03-25T08:06:21.300Z,7.80
2018-03-25T08:07:22.035Z,7.80
2018-03-25T08:08:22.749Z,7.75
2018-03-25T08:09:23.486Z,7.87
2018-03-25T08:10:24.201Z,7.80
2018-03-25T08:11:24.932Z,7.87
2018-03-25T08:12:25.663Z,7.90
2018-03-25T08:13:26.381Z,7.98
2018-03-25T08:14:27.098Z,8.00
2018-03-25T08:15:27.817Z,8.06
2018-03-25T08:16:28.534Z,8.09
2018-03-25T08:17:29.268Z,8.08
2018-03-25T08:18:29.986Z,7.98
2018-03-25T08:19:30.705Z,8.13
2018-03-25T08:20:31.422Z,8.19
2018-03-25T08:21:32.168Z,8.24
2018-03-25T08:22:32.873Z,8.23
2018-03-25T08:23:33.589Z,8.23
2018-03-25T08:24:34.308Z,8.20
2018-03-25T08:25:35.041Z,8.28
2018-03-25T08:26:35.759Z,8.20
2018-03-25T08:27:36.475Z,8.24
2018-03-25T08:28:37.194Z,8.36
2018-03-25T08:29:37.909Z,8.26
2018-03-25T08:30:38.626Z,8.31
2018-03-25T08:31:39.345Z,8.20
2018-03-25T08:32:40.064Z,8.20
2018-03-25T08:33:40.780Z,8.16
2018-03-25T08:34:41.496Z,8.28
2018-03-25T08:35:42.227Z,8.33
2018-03-25T08:36:42.947Z,8.37
2018-03-25T08:37:43.676Z,8.34
2018-03-25T08:38:44.395Z,8.42
2018-03-25T08:39:45.113Z,8.55
2018-03-25T08:40:45.846Z,8.69
2018-03-25T08:41:46.565Z,8.63
2018-03-25T08:42:47.296Z,8.73
2018-03-25T08:43:48.027Z,8.71
2018-03-25T08:44:48.746Z,8.81
2018-03-25T08:45:49.467Z,8.81
2018-03-25T08:46:50.198Z,8.64
2018-03-25T08:47:50.927Z,8.61
2018-03-25T08:48:51.646Z,8.55
2018-03-25T08:49:52.367Z,8.53
2018-03-25T08:50:53.085Z,8.60
2018-03-25T08:51:53.803Z,8.48
2018-03-25T08:52:54.520Z,8.44
2018-03-25T08:53:55.239Z,8.41
2018-03-25T08:54:55.958Z,8.36
2018-03-25T08:55:56.692Z,8.51
2018-03-25T08:56:57.410Z,8.55
2018-03-25T08:57:58.128Z,8.61
2018-03-25T08:58:58.847Z,8.74
2018-03-25T08:59:59.565Z,8.91
2018-03-25T09:01:00.286Z,8.85
2018-03-25T09:02:01.006Z,8.74
2018-03-25T09:03:01.723Z,8.79
2018-03-25T09:04:02.442Z,8.92
2018-03-25T09:05:03.166Z,9.00
2018-03-25T09:06:03.884Z,8.97
2018-03-25T09:07:04.605Z,9.16
2018-03-25T09:08:05.325Z,9.23
2018-03-25T09:09:06.045Z,9.29
2018-03-25T09:10:06.765Z,9.41
2018-03-25T09:11:07.484Z,9.43
2018-03-25T09:12:08.207Z,9.55
2018-03-25T09:13:53.580Z,9.56
2018-03-25T09:14:54.305Z,9.51
2018-03-25T09:15:55.025Z,9.56
2018-03-25T09:16:55.766Z,9.64
2018-03-25T09:17:56.477Z,9.69
2018-03-25T09:18:57.210Z,9.84
2018-03-25T09:19:57.930Z,9.97
2018-03-25T09:20:58.651Z,9.94
2018-03-25T09:21:59.375Z,10.04
2018-03-25T09:23:00.110Z,10.10
2018-03-25T09:24:00.831Z,10.23
2018-03-25T09:25:01.574Z,10.23
2018-03-25T09:26:02.301Z,10.30
2018-03-25T09:27:03.038Z,10.15
2018-03-25T09:28:03.760Z,10.20
2018-03-25T09:29:04.482Z,10.20
2018-03-25T09:30:05.204Z,10.37
2018-03-25T09:31:05.969Z,10.26
2018-03-25T09:32:06.649Z,10.38
2018-03-25T09:33:07.368Z,10.42
2018-03-25T09:34:08.092Z,10.48
2018-03-25T09:35:08.815Z,10.63
2018-03-25T09:36:09.552Z,10.59
2018-03-25T09:37:10.282Z,10.60
2018-03-25T09:38:10.998Z,10.64
2018-03-25T09:39:11.722Z,10.69
2018-03-25T09:40:12.445Z,10.81
2018-03-25T09:41:13.169Z,10.89
2018-03-25T09:42:13.889Z,10.90
2018-03-25T09:43:14.627Z,10.94
2018-03-25T09:44:15.351Z,11.08
2018-03-25T09:45:16.070Z,10.90
2018-03-25T09:46:16.794Z,10.96
2018-03-25T09:47:17.518Z,10.93
2018-03-25T09:48:18.241Z,11.08
2018-03-25T09:49:18.964Z,11.11
2018-03-25T09:50:19.685Z,11.14
2018-03-25T09:51:20.408Z,11.15
2018-03-25T09:52:21.130Z,11.10
2018-03-25T09:53:21.853Z,11.11
2018-03-25T09:54:22.587Z,11.14
2018-03-25T09:55:23.310Z,11.12
2018-03-25T09:56:24.034Z,11.29
2018-03-25T09:57:24.756Z,11.15
2018-03-25T09:58:25.492Z,11.07
2018-03-25T09:59:26.216Z,11.12
2018-03-25T10:00:26.938Z,11.04
2018-03-25T10:01:27.676Z,11.08
2018-03-25T10:02:28.411Z,11.27
2018-03-25T10:03:29.134Z,11.27
2018-03-25T10:04:29.872Z,11.43
2018-03-25T10:05:30.596Z,11.32
2018-03-25T10:06:31.333Z,11.26
2018-03-25T10:07:32.073Z,11.30
2018-03-25T10:08:32.806Z,11.40
2018-03-25T10:09:33.530Z,11.57
2018-03-25T10:10:34.254Z,11.59
2018-03-25T10:11:34.977Z,11.78
2018-03-25T10:12:35.701Z,11.95
2018-03-25T10:13:36.426Z,12.06
2018-03-25T10:14:37.169Z,12.20
2018-03-25T10:15:37.891Z,12.37
2018-03-25T10:16:38.627Z,12.45
2018-03-25T10:17:39.352Z,12.70
2018-03-25T10:18:40.078Z,12.78
2018-03-25T10:19:40.806Z,13.04
2018-03-25T10:20:41.542Z,13.27
2018-03-25T10:21:42.281Z,13.11
2018-03-25T10:22:43.009Z,13.22
2018-03-25T10:23:43.733Z,13.27
2018-03-25T10:24:44.472Z,13.39
2018-03-25T10:25:45.213Z,13.63
2018-03-25T10:26:45.941Z,13.78
2018-03-25T10:27:46.668Z,14.04
2018-03-25T10:28:47.398Z,14.14
2018-03-25T10:29:48.122Z,14.51
2018-03-25T10:30:48.862Z,14.79
2018-03-25T10:31:49.604Z,14.85
2018-03-25T10:32:50.332Z,14.96
2018-03-25T10:33:51.061Z,15.15
2018-03-25T10:34:51.787Z,15.55
2018-03-25T10:35:52.535Z,15.40
2018-03-25T10:36:53.260Z,15.42
2018-03-25T10:37:53.988Z,15.65
2018-03-25T10:38:54.717Z,15.86
2018-03-25T10:39:55.458Z,15.90
2018-03-25T10:40:56.189Z,16.00
2018-03-25T10:41:56.919Z,16.23
2018-03-25T10:42:57.647Z,16.24
2018-03-25T10:43:58.389Z,16.26
2018-03-25T10:44:59.118Z,16.29
2018-03-25T10:45:59.845Z,16.33
2018-03-25T10:47:00.574Z,16.54
2018-03-25T10:48:01.304Z,16.65
2018-03-25T10:49:02.033Z,16.79
2018-03-25T10:50:02.777Z,16.91
2018-03-25T10:51:03.519Z,17.09
2018-03-25T10:52:04.249Z,17.36
2018-03-25T10:53:04.992Z,17.30
2018-03-25T10:54:05.722Z,17.38
2018-03-25T10:55:06.452Z,17.49
2018-03-25T10:56:07.196Z,17.59
2018-03-25T10:57:07.928Z,17.59
2018-03-25T10:58:08.659Z,17.63
2018-03-25T10:59:09.398Z,17.78
2018-03-25T11:00:10.131Z,17.78
2018-03-25T11:01:10.864Z,17.74
2018-03-25T11:02:11.611Z,17.89
2018-03-25T11:03:12.348Z,18.01
2018-03-25T11:04:13.098Z,17.97
2018-03-25T11:05:13.851Z,18.10
2018-03-25T11:06:14.592Z,18.15
2018-03-25T11:07:15.328Z,17.86
2018-03-25T11:08:16.063Z,17.82
2018-03-25T11:09:16.799Z,18.08
2018-03-25T11:10:17.535Z,18.34
2018-03-25T11:11:18.271Z,18.62
2018-03-25T11:12:19.009Z,18.88
2018-03-25T11:13:19.744Z,18.70
2018-03-25T11:14:20.480Z,18.88
2018-03-25T11:15:21.218Z,18.93
2018-03-25T11:16:21.952Z,19.12
2018-03-25T11:17:22.695Z,19.45
2018-03-25T11:18:23.430Z,19.40
2018-03-25T11:19:24.182Z,19.55
2018-03-25T11:20:24.933Z,19.91
2018-03-25T11:21:25.669Z,19.94
2018-03-25T11:22:26.404Z,20.29
2018-03-25T11:23:27.139Z,20.70
2018-03-25T11:24:27.874Z,21.05
2018-03-25T11:25:28.610Z,21.62
2018-03-25T11:26:29.359Z,21.82
2018-03-25T11:27:30.095Z,21.82
2018-03-25T11:28:30.832Z,21.83
2018-03-25T11:29:31.567Z,22.08
2018-03-25T11:30:32.305Z,22.48
2018-03-25T11:31:33.056Z,22.63
2018-03-25T11:32:33.793Z,22.93
2018-03-25T11:33:34.549Z,22.72
2018-03-25T11:34:35.280Z,23.00
2018-03-25T11:35:36.018Z,23.18
2018-03-25T11:36:36.756Z,23.40
2018-03-25T11:37:37.495Z,23.65
2018-03-25T11:38:38.233Z,23.54
2018-03-25T11:39:38.971Z,21.95
2018-03-25T11:40:39.709Z,22.17
2018-03-25T11:41:40.447Z,22.44
2018-03-25T11:42:41.186Z,22.63
2018-03-25T11:43:41.923Z,22.93
2018-03-25T11:44:42.661Z,23.13
2018-03-25T11:45:43.400Z,23.10
2018-03-25T11:46:44.154Z,22.91
2018-03-25T11:47:44.893Z,23.39
2018-03-25T11:48:45.648Z,23.87
2018-03-25T11:49:46.380Z,23.78
2018-03-25T11:50:47.133Z,24.17
2018-03-25T11:51:47.884Z,24.33
2018-03-25T11:52:48.623Z,24.70
2018-03-25T11:53:49.361Z,25.06
2018-03-25T11:54:50.099Z,25.18
2018-03-25T11:55:50.837Z,25.14
2018-03-25T11:56:51.591Z,25.28
2018-03-25T11:57:52.327Z,25.14
2018-03-25T11:58:53.080Z,25.35
2018-03-25T11:59:53.818Z,25.16
2018-03-25T12:00:54.559Z,24.76
2018-03-25T12:01:55.298Z,24.43
2018-03-25T12:02:56.036Z,24.85
2018-03-25T12:03:56.773Z,25.33
2018-03-25T12:04:57.514Z,24.91
2018-03-25T12:05:58.252Z,23.87
2018-03-25T12:06:59.043Z,24.24
2018-03-25T12:07:59.742Z,23.96
2018-03-25T12:09:00.479Z,23.98
2018-03-25T12:10:01.237Z,23.96
2018-03-25T12:11:01.977Z,24.36
2018-03-25T12:12:02.719Z,24.13
2018-03-25T12:13:03.456Z,24.55
2018-03-25T12:14:04.196Z,25.06
2018-03-25T12:15:04.942Z,24.99
2018-03-25T12:16:05.683Z,24.55
2018-03-25T12:17:06.423Z,24.57
2018-03-25T12:18:07.166Z,24.17
2018-03-25T12:19:07.927Z,23.76
2018-03-25T12:20:08.682Z,24.40
2018-03-25T12:21:09.438Z,24.89
2018-03-25T12:22:10.183Z,24.91
2018-03-25T12:23:10.926Z,25.43
2018-03-25T12:24:11.670Z,25.01
2018-03-25T12:25:12.413Z,24.60
2018-03-25T12:26:13.153Z,24.10
2018-03-25T12:27:13.891Z,23.63
2018-03-25T12:28:14.629Z,23.20
2018-03-25T12:29:15.375Z,22.51
2018-03-25T12:30:16.111Z,22.29
2018-03-25T12:31:16.846Z,21.82
2018-03-25T12:32:17.593Z,21.57
2018-03-25T12:33:18.327Z,21.22
2018-03-25T12:34:19.061Z,20.70
2018-03-25T12:35:19.798Z,20.48
2018-03-25T12:36:20.531Z,20.14
2018-03-25T12:37:21.265Z,20.11
2018-03-25T12:38:22.011Z,20.06
2018-03-25T12:39:22.744Z,19.91
2018-03-25T12:40:23.479Z,19.85
2018-03-25T12:41:24.222Z,19.44
2018-03-25T12:42:24.956Z,19.34
2018-03-25T12:43:25.688Z,19.22
2018-03-25T12:44:26.441Z,18.99
2018-03-25T12:45:27.166Z,18.93
2018-03-25T12:46:27.898Z,18.70
2018-03-25T12:47:28.629Z,18.73
2018-03-25T12:48:29.364Z,18.35
2018-03-25T12:49:30.099Z,18.26
2018-03-25T12:50:30.830Z,17.82
2018-03-25T12:51:31.577Z,17.64
2018-03-25T12:52:32.308Z,17.39
2018-03-25T12:53:33.042Z,17.34
2018-03-25T12:54:33.773Z,17.14
2018-03-25T12:55:34.505Z,17.04
2018-03-25T12:56:35.238Z,17.05
2018-03-25T12:57:35.971Z,16.78
2018-03-25T12:58:36.702Z,16.75
2018-03-25T12:59:37.436Z,16.68
2018-03-25T13:00:38.178Z,16.58
2018-03-25T13:01:38.916Z,16.42
2018-03-25T13:02:39.630Z,16.46
2018-03-25T13:03:40.372Z,16.26
2018-03-25T13:04:41.112Z,16.20
2018-03-25T13:05:41.843Z,16.13
2018-03-25T13:06:42.569Z,16.02
2018-03-25T13:07:43.308Z,16.01
2018-03-25T13:08:44.035Z,15.97
2018-03-25T13:09:44.760Z,16.05
2018-03-25T13:10:45.500Z,16.10
2018-03-25T13:11:46.227Z,16.00
2018-03-25T13:12:46.967Z,16.13
2018-03-25T13:13:47.706Z,16.04
2018-03-25T13:14:48.432Z,15.91
2018-03-25T13:15:49.212Z,15.83
2018-03-25T13:16:49.883Z,15.83
2018-03-25T13:17:50.606Z,15.76
2018-03-25T13:18:51.333Z,15.73
2018-03-25T13:19:52.058Z,15.70
2018-03-25T13:20:52.783Z,15.33